Altair, Texas
Current Conditions -  °F | °C
As of 6:15 PM on Friday 24 Oct 2014 (Local Time) from K66R Reporting Station
Clear Clear  
Wind Chill: 79°   Ceiling: Unl
Heat Index: 80°   Visibility: 10mi
Dew Point: 59°   Wind: 3mph
Humidity: 50%   Direction: 70°ENE
Pressure: 30.08"   Gusts: NA
Location:  29.57°N, 96.45°W
Report Text: K66R 242315Z AUTO 07003KT 10SM CLR 26/15 A3008 RMK AO2 T02620150
Loading
Personal Weather Stations






























Interactive Weather Map New forecast layout! Learn more

10-Day Weather Forecast

Advertisements
Track Severe Weather on mobile